La Guadeloupe, Canada
Current Conditions -  °F | °C
As of 2:15 PM on Friday 28 Nov 2014 (Local Time) from CYSC Reporting Station
Light Snow Light Snow  
Wind Chill: 11°   Ceiling: 2200
Heat Index: 23°   Visibility: 9mi
Dew Point: 18°   Wind: 13mph
Humidity: 80%   Direction: 280°W
Pressure: 30.03"   Gusts: NA
Location:  45.97°N, 70.95°W
Report Text: CYSC 281915Z AUTO 28011KT 9SM -SN BKN022 OVC028 M05/M08 A3003 RMK SLP183
Loading
Personal Weather Stations






























Interactive Weather Map New forecast layout! Learn more

10-Day Weather Forecast

Advertisements
Track Severe Weather on mobile